Beaminster, United Kingdom
Current Conditions -  °F | °C
As of 1:50 AM on Sunday 23 Nov 2014 (Local Time) from EGDY Reporting Station
Light Rain Light Rain  
Wind Chill: 50°   Ceiling: 5000
Heat Index: 50°   Visibility: 1.4mi
Dew Point: 48°   Wind: 6mph
Humidity: 94%   Direction: 280°W
Pressure: 30"   Gusts: NA
Location:  50.81°N, 2.74°W
Report Text: EGDY 230150Z AUTO 28005KT 2300 -RA BKN050/// 10/09 Q1016
Loading
Personal Weather Stations






























Interactive Weather Map New forecast layout! Learn more

10-Day Weather Forecast

Advertisements
Track Severe Weather on mobile